createdAt,value
2023-05-03T00:00:47.562Z,76.64
2023-05-03T00:03:14.329Z,76.29
2023-05-03T00:05:41.244Z,76.37
2023-05-03T00:08:07.869Z,76.20
2023-05-03T00:10:34.332Z,76.36
2023-05-03T00:13:00.769Z,76.53
2023-05-03T00:15:27.289Z,76.65
2023-05-03T00:17:53.907Z,76.96
2023-05-03T00:20:20.689Z,76.67
2023-05-03T00:22:47.276Z,76.61
2023-05-03T00:25:14.875Z,76.72
2023-05-03T00:27:41.299Z,76.34
2023-05-03T00:30:09.597Z,76.66
2023-05-03T00:32:36.626Z,76.52
2023-05-03T00:35:03.432Z,76.24
2023-05-03T00:37:30.920Z,76.47
2023-05-03T00:39:57.320Z,76.24
2023-05-03T00:42:24.096Z,76.64
2023-05-03T00:44:50.484Z,76.49
2023-05-03T00:47:17.686Z,76.84
2023-05-03T00:49:45.167Z,77.06
2023-05-03T00:52:11.636Z,77.01
2023-05-03T00:54:38.181Z,77.19
2023-05-03T00:57:05.081Z,77.39
2023-05-03T00:59:32.639Z,77.43
2023-05-03T01:01:59.333Z,76.88
2023-05-03T01:04:26.119Z,77.21
2023-05-03T01:07:04.660Z,77.75
2023-05-03T01:09:52.240Z,77.52
2023-05-03T01:12:33.960Z,77.84
2023-05-03T01:15:24.318Z,78.07
2023-05-03T01:18:04.132Z,76.49
2023-05-03T01:20:33.598Z,76.85
2023-05-03T01:22:59.997Z,77.19
2023-05-03T01:25:29.530Z,77.51
2023-05-03T01:27:55.935Z,78.15
2023-05-03T01:30:27.494Z,78.21
2023-05-03T01:33:10.300Z,78.97
2023-05-03T01:36:00.943Z,79.54
2023-05-03T01:38:33.182Z,79.31
2023-05-03T01:41:04.061Z,79.49
2023-05-03T01:43:33.782Z,79.69
2023-05-03T01:46:00.357Z,79.55
2023-05-03T01:48:26.830Z,80.02
2023-05-03T01:50:53.300Z,79.89
2023-05-03T01:53:20.116Z,80.24
2023-05-03T01:55:46.596Z,80.41
2023-05-03T01:58:13.016Z,80.50
2023-05-03T02:00:39.482Z,80.86
2023-05-03T02:03:06.118Z,81.03
2023-05-03T02:05:32.567Z,81.14
2023-05-03T02:07:59.007Z,80.80
2023-05-03T02:10:25.501Z,81.02
2023-05-03T02:12:51.971Z,80.64
2023-05-03T02:15:20.094Z,80.78
2023-05-03T02:17:49.600Z,80.60
2023-05-03T02:20:16.490Z,80.11
2023-05-03T02:22:43.077Z,79.95
2023-05-03T02:25:09.604Z,79.88
2023-05-03T02:27:36.150Z,79.56
2023-05-03T02:30:02.890Z,79.16
2023-05-03T02:32:29.450Z,79.29
2023-05-03T02:34:56.065Z,78.90
2023-05-03T02:37:22.518Z,79.01
2023-05-03T02:39:48.987Z,79.00
2023-05-03T02:42:16.134Z,79.04
2023-05-03T02:44:42.596Z,78.93
2023-05-03T02:47:09.464Z,78.61
2023-05-03T02:49:35.959Z,78.75
2023-05-03T02:52:02.444Z,78.74
2023-05-03T02:54:28.927Z,78.72
2023-05-03T02:56:55.601Z,78.58
2023-05-03T02:59:21.987Z,78.41
2023-05-03T03:01:49.298Z,78.30
2023-05-03T03:04:15.810Z,78.22
2023-05-03T03:06:42.264Z,78.32
2023-05-03T03:09:08.686Z,78.26
2023-05-03T03:11:35.261Z,78.02
2023-05-03T03:14:01.704Z,77.82
2023-05-03T03:16:28.474Z,77.91
2023-05-03T03:18:55.128Z,77.91
2023-05-03T03:21:21.662Z,77.52
2023-05-03T03:23:48.256Z,77.48
2023-05-03T03:26:14.707Z,77.57
2023-05-03T03:28:41.301Z,77.88
2023-05-03T03:31:07.916Z,77.94
2023-05-03T03:33:34.393Z,77.96
2023-05-03T03:36:00.980Z,77.88
2023-05-03T03:38:27.424Z,78.03
2023-05-03T03:40:54.410Z,77.99
2023-05-03T03:43:20.864Z,77.99
2023-05-03T03:45:47.276Z,77.95
2023-05-03T03:48:13.930Z,77.55
2023-05-03T03:50:40.497Z,77.44
2023-05-03T03:53:07.078Z,77.40
2023-05-03T03:55:33.508Z,77.21
2023-05-03T03:58:00.084Z,77.38
2023-05-03T04:00:26.672Z,77.34
2023-05-03T04:02:53.231Z,77.38
2023-05-03T04:05:19.847Z,77.58
2023-05-03T04:07:46.300Z,77.73
2023-05-03T04:10:12.737Z,77.95
2023-05-03T04:12:39.256Z,78.04
2023-05-03T04:15:06.541Z,78.17
2023-05-03T04:17:34.937Z,78.17
2023-05-03T04:20:07.351Z,78.45
2023-05-03T04:22:34.104Z,78.35
2023-05-03T04:25:03.578Z,78.23
2023-05-03T04:27:30.122Z,78.06
2023-05-03T04:29:57.140Z,78.03
2023-05-03T04:32:23.599Z,78.01
2023-05-03T04:34:54.465Z,77.79
2023-05-03T04:37:23.513Z,77.96
2023-05-03T04:39:49.978Z,77.82
2023-05-03T04:42:16.609Z,77.48
2023-05-03T04:44:43.050Z,77.50
2023-05-03T04:47:09.577Z,77.19
2023-05-03T04:49:36.212Z,77.17
2023-05-03T04:52:03.055Z,76.88
2023-05-03T04:54:29.545Z,76.68
2023-05-03T04:56:56.722Z,76.18
2023-05-03T04:59:23.189Z,76.08
2023-05-03T05:01:49.737Z,75.89
2023-05-03T05:04:16.787Z,75.88
2023-05-03T05:06:43.376Z,75.86
2023-05-03T05:09:23.219Z,76.38
2023-05-03T05:11:49.914Z,75.60
2023-05-03T05:14:16.491Z,75.36
2023-05-03T05:16:43.006Z,75.43
2023-05-03T05:19:09.537Z,75.14
2023-05-03T05:21:36.152Z,75.27
2023-05-03T05:24:02.640Z,74.98
2023-05-03T05:26:29.286Z,74.23
2023-05-03T05:28:56.050Z,74.04
2023-05-03T05:31:22.558Z,73.34
2023-05-03T05:33:49.026Z,72.83
2023-05-03T05:36:15.644Z,72.97
2023-05-03T05:38:42.240Z,72.20
2023-05-03T05:41:08.728Z,71.58
2023-05-03T05:43:35.251Z,71.71
2023-05-03T05:46:01.759Z,70.74
2023-05-03T05:48:28.232Z,69.54
2023-05-03T05:50:54.609Z,69.44
2023-05-03T05:53:20.989Z,68.50
2023-05-03T05:55:47.463Z,67.50
2023-05-03T05:58:13.941Z,66.66
2023-05-03T06:00:40.998Z,66.24
2023-05-03T06:03:07.552Z,65.21
2023-05-03T06:05:34.098Z,64.40
2023-05-03T06:08:00.578Z,63.95
2023-05-03T06:10:27.015Z,63.30
2023-05-03T06:12:53.454Z,63.30
2023-05-03T06:15:19.915Z,62.39
2023-05-03T06:17:46.867Z,62.05
2023-05-03T06:20:13.764Z,61.46
2023-05-03T06:22:40.388Z,60.43
2023-05-03T06:25:10.544Z,59.82
2023-05-03T06:27:38.363Z,59.40
2023-05-03T06:30:06.627Z,59.04
2023-05-03T06:32:33.199Z,58.33
2023-05-03T06:34:59.749Z,56.96
2023-05-03T06:37:26.488Z,56.35
2023-05-03T06:39:53.052Z,55.73
2023-05-03T06:42:19.573Z,55.82
2023-05-03T06:44:46.148Z,54.23
2023-05-03T06:47:12.571Z,54.25
2023-05-03T06:49:39.055Z,53.31
2023-05-03T06:52:05.688Z,52.34
2023-05-03T06:54:32.122Z,52.02
2023-05-03T06:56:58.750Z,51.30
2023-05-03T06:59:26.857Z,50.88
2023-05-03T07:01:53.548Z,51.82
2023-05-03T07:04:20.189Z,50.87
2023-05-03T07:06:56.107Z,51.29
2023-05-03T07:09:32.056Z,50.43
2023-05-03T07:12:08.456Z,50.39
2023-05-03T07:14:34.931Z,50.55
2023-05-03T07:17:01.314Z,49.24
2023-05-03T07:19:27.727Z,48.99
2023-05-03T07:21:54.168Z,48.16
2023-05-03T07:24:20.695Z,49.16
2023-05-03T07:26:48.545Z,49.41
2023-05-03T07:29:15.658Z,49.49
2023-05-03T07:31:42.245Z,49.54
2023-05-03T07:34:09.094Z,48.32
2023-05-03T07:36:35.591Z,48.09
2023-05-03T07:39:04.760Z,48.35
2023-05-03T07:41:31.756Z,47.55
2023-05-03T07:43:58.524Z,47.06
2023-05-03T07:46:25.128Z,48.55
2023-05-03T07:48:51.677Z,47.54
2023-05-03T07:51:18.141Z,46.48
2023-05-03T07:53:44.578Z,46.18
2023-05-03T07:56:11.284Z,46.70
2023-05-03T07:58:40.517Z,46.12
2023-05-03T08:01:07.748Z,45.37
2023-05-03T08:03:34.449Z,45.32
2023-05-03T08:06:01.613Z,44.77
2023-05-03T08:08:28.496Z,44.73
2023-05-03T08:10:54.972Z,44.90
2023-05-03T08:13:22.693Z,44.79
2023-05-03T08:15:50.743Z,44.81
2023-05-03T08:18:17.301Z,44.95
2023-05-03T08:20:45.201Z,44.95
2023-05-03T08:23:11.676Z,45.20
2023-05-03T08:25:38.086Z,45.39
2023-05-03T08:28:04.778Z,45.56
2023-05-03T08:30:31.513Z,45.12
2023-05-03T08:32:57.985Z,44.97
2023-05-03T08:35:25.323Z,44.60
2023-05-03T08:37:51.754Z,44.66
2023-05-03T08:40:22.235Z,44.53
2023-05-03T08:42:50.221Z,44.04
2023-05-03T08:45:17.204Z,43.52
2023-05-03T08:47:45.487Z,43.12
2023-05-03T08:50:13.873Z,43.38
2023-05-03T08:52:42.614Z,42.78
2023-05-03T08:55:10.540Z,41.95
2023-05-03T08:57:37.977Z,42.01
2023-05-03T09:00:12.606Z,41.78
2023-05-03T09:02:40.163Z,42.94
2023-05-03T09:05:15.839Z,42.30
2023-05-03T09:08:01.975Z,41.83
2023-05-03T09:10:28.473Z,42.07
2023-05-03T09:13:01.124Z,42.07
2023-05-03T09:15:30.952Z,41.63
2023-05-03T09:18:16.117Z,41.95
2023-05-03T09:20:51.089Z,41.92
2023-05-03T09:23:20.035Z,41.03
2023-05-03T09:25:51.512Z,41.08
2023-05-03T09:28:20.256Z,41.09
2023-05-03T09:30:48.208Z,40.89
2023-05-03T09:33:22.375Z,41.27
2023-05-03T09:36:03.574Z,41.28
2023-05-03T09:38:36.864Z,40.70
2023-05-03T09:41:05.960Z,39.86
2023-05-03T09:43:32.579Z,39.69
2023-05-03T09:46:13.442Z,40.48
2023-05-03T09:48:40.987Z,39.50
2023-05-03T09:51:08.502Z,40.03
2023-05-03T09:53:37.212Z,40.26
2023-05-03T09:56:06.281Z,39.40
2023-05-03T09:58:34.979Z,38.47
2023-05-03T10:01:02.115Z,39.05
2023-05-03T10:03:35.134Z,39.41
2023-05-03T10:06:05.339Z,39.06
2023-05-03T10:08:37.471Z,39.94
2023-05-03T10:11:05.408Z,37.68
2023-05-03T10:13:32.005Z,38.18
2023-05-03T10:16:12.690Z,38.72
2023-05-03T10:18:51.195Z,38.48
2023-05-03T10:21:51.385Z,38.94
2023-05-03T10:24:17.877Z,37.39
2023-05-03T10:26:49.835Z,38.42
2023-05-03T10:29:49.018Z,38.81
2023-05-03T10:32:31.768Z,39.10
2023-05-03T10:35:07.434Z,39.00
2023-05-03T10:37:38.008Z,38.27
2023-05-03T10:40:10.236Z,38.63
2023-05-03T10:42:43.968Z,38.39
2023-05-03T10:45:21.649Z,39.02
2023-05-03T10:48:13.142Z,39.62
2023-05-03T10:50:40.642Z,37.06
2023-05-03T10:53:07.388Z,36.69
2023-05-03T10:55:34.328Z,37.34
2023-05-03T10:58:01.917Z,36.52
2023-05-03T11:00:43.986Z,36.12
2023-05-03T11:03:25.332Z,36.00
2023-05-03T11:05:52.262Z,35.10
2023-05-03T11:08:20.831Z,33.86
2023-05-03T11:10:56.806Z,33.62
2023-05-03T11:13:23.362Z,33.12
2023-05-03T11:15:50.029Z,32.54
2023-05-03T11:18:16.927Z,32.72
2023-05-03T11:20:44.092Z,32.13
2023-05-03T11:23:12.334Z,32.48
2023-05-03T11:25:39.251Z,32.25
2023-05-03T11:28:05.944Z,31.49
2023-05-03T11:30:37.323Z,32.41
2023-05-03T11:33:04.548Z,33.11
2023-05-03T11:35:31.896Z,32.60
2023-05-03T11:37:58.498Z,33.13
2023-05-03T11:40:26.095Z,33.29
2023-05-03T11:42:58.639Z,33.97
2023-05-03T11:45:52.312Z,34.68
2023-05-03T11:48:18.963Z,34.78
2023-05-03T11:50:48.328Z,33.88
2023-05-03T11:53:15.505Z,34.00
2023-05-03T11:55:48.025Z,33.96
2023-05-03T11:58:20.394Z,33.66
2023-05-03T12:00:48.556Z,33.10
2023-05-03T12:03:24.441Z,33.21
2023-05-03T12:05:54.644Z,32.74
2023-05-03T12:08:23.139Z,32.43
2023-05-03T12:10:53.894Z,32.98
2023-05-03T12:13:56.970Z,33.52
2023-05-03T12:16:23.560Z,32.83
2023-05-03T12:18:56.519Z,33.37
2023-05-03T12:23:57.200Z,34.34
2023-05-03T12:26:26.443Z,33.84
2023-05-03T12:28:56.122Z,34.19
2023-05-03T12:31:23.465Z,34.38
2023-05-03T12:34:11.372Z,34.51
2023-05-03T12:36:38.174Z,34.59
2023-05-03T12:39:09.443Z,34.47
2023-05-03T12:44:09.771Z,34.67
2023-05-03T12:46:38.692Z,34.87
2023-05-03T12:49:08.311Z,34.45
2023-05-03T12:51:35.615Z,35.22
2023-05-03T12:54:03.663Z,33.39
2023-05-03T12:56:32.585Z,32.93
2023-05-03T12:59:27.665Z,32.77
2023-05-03T13:03:08.265Z,31.93
2023-05-03T13:04:57.026Z,31.36
2023-05-03T13:07:28.236Z,30.63
2023-05-03T13:12:26.154Z,30.44
2023-05-03T13:14:53.887Z,30.28
2023-05-03T13:17:22.392Z,31.74
2023-05-03T13:19:50.945Z,31.56
2023-05-03T13:22:17.840Z,31.58
2023-05-03T13:24:46.965Z,31.93
2023-05-03T13:27:14.005Z,32.09
2023-05-03T13:29:40.866Z,31.23
2023-05-03T13:32:08.211Z,32.90
2023-05-03T13:34:35.453Z,32.84
2023-05-03T13:37:02.524Z,32.99
2023-05-03T13:39:29.058Z,32.43
2023-05-03T13:41:55.510Z,33.43
2023-05-03T13:44:25.423Z,33.57
2023-05-03T13:46:52.808Z,34.42
2023-05-03T13:49:19.770Z,34.97
2023-05-03T13:51:46.249Z,35.50
2023-05-03T13:54:12.663Z,36.14
2023-05-03T13:56:40.361Z,36.93
2023-05-03T13:59:08.887Z,37.06
2023-05-03T14:01:36.177Z,36.76
2023-05-03T14:04:03.947Z,37.36
2023-05-03T14:06:33.367Z,38.28
2023-05-03T14:09:01.608Z,37.66
2023-05-03T14:11:30.611Z,37.98
2023-05-03T14:13:58.446Z,38.15
2023-05-03T14:18:56.259Z,38.02
2023-05-03T14:21:22.754Z,38.04
2023-05-03T14:23:53.345Z,37.11
2023-05-03T14:26:21.921Z,37.20
2023-05-03T14:28:48.324Z,36.28
2023-05-03T14:31:14.910Z,36.11
2023-05-03T14:33:41.509Z,36.38
2023-05-03T14:36:09.137Z,35.92
2023-05-03T14:38:37.125Z,35.38
2023-05-03T14:41:03.687Z,35.75
2023-05-03T14:43:30.288Z,35.97
2023-05-03T14:45:56.696Z,36.15
2023-05-03T14:48:23.490Z,35.87
2023-05-03T14:50:50.731Z,35.91
2023-05-03T14:53:17.474Z,36.25
2023-05-03T14:55:44.208Z,35.93
2023-05-03T14:58:10.636Z,35.03
2023-05-03T15:00:38.957Z,35.90
2023-05-03T15:03:05.933Z,35.67
2023-05-03T15:05:32.502Z,35.79
2023-05-03T15:07:59.986Z,35.78
2023-05-03T15:10:26.424Z,35.94
2023-05-03T15:12:53.004Z,36.00
2023-05-03T15:15:19.420Z,36.45
2023-05-03T15:17:47.174Z,35.77
2023-05-03T15:20:15.293Z,36.42
2023-05-03T15:22:41.766Z,37.07
2023-05-03T15:25:08.688Z,36.88
2023-05-03T15:27:35.131Z,35.80
2023-05-03T15:30:01.849Z,35.85
2023-05-03T15:32:28.503Z,35.34
2023-05-03T15:34:55.279Z,35.31
2023-05-03T15:37:21.668Z,35.55
2023-05-03T15:39:48.054Z,35.25
2023-05-03T15:42:14.528Z,34.69
2023-05-03T15:44:40.982Z,34.60
2023-05-03T15:47:07.400Z,34.13
2023-05-03T15:49:33.799Z,34.71
2023-05-03T15:52:00.230Z,34.47
2023-05-03T15:54:26.632Z,34.93
2023-05-03T15:56:53.206Z,34.94
2023-05-03T15:59:19.688Z,35.06
2023-05-03T16:01:46.142Z,35.45
2023-05-03T16:04:12.631Z,35.61
2023-05-03T16:06:39.547Z,36.37
2023-05-03T16:09:07.048Z,35.83
2023-05-03T16:11:33.615Z,36.84
2023-05-03T16:14:00.013Z,36.88
2023-05-03T16:16:27.301Z,36.86
2023-05-03T16:18:53.881Z,37.45
2023-05-03T16:21:20.328Z,37.72
2023-05-03T16:23:46.882Z,37.27
2023-05-03T16:26:17.915Z,37.25
2023-05-03T16:28:44.450Z,37.39
2023-05-03T16:31:12.337Z,37.86
2023-05-03T16:33:38.892Z,37.79
2023-05-03T16:36:05.435Z,38.43
2023-05-03T16:38:32.128Z,37.72
2023-05-03T16:40:59.866Z,37.55
2023-05-03T16:43:26.632Z,37.31
2023-05-03T16:46:02.407Z,37.43
2023-05-03T16:48:31.983Z,37.23
2023-05-03T16:50:59.815Z,37.50
2023-05-03T16:53:26.212Z,37.43
2023-05-03T16:55:53.968Z,37.92
2023-05-03T16:58:20.802Z,37.56
2023-05-03T17:00:48.082Z,37.99
2023-05-03T17:03:14.760Z,38.40
2023-05-03T17:05:41.254Z,38.95
2023-05-03T17:08:10.924Z,39.18
2023-05-03T17:10:39.142Z,40.03
2023-05-03T17:13:06.341Z,40.03
2023-05-03T17:15:33.135Z,40.07
2023-05-03T17:18:01.951Z,39.67
2023-05-03T17:20:30.180Z,40.00
2023-05-03T17:22:56.728Z,39.88
2023-05-03T17:25:23.280Z,39.79
2023-05-03T17:27:51.721Z,39.98
2023-05-03T17:30:21.171Z,39.98
2023-05-03T17:32:48.578Z,40.08
2023-05-03T17:35:15.133Z,40.27
2023-05-03T17:37:41.647Z,40.77
2023-05-03T17:40:08.896Z,41.06
2023-05-03T17:42:35.764Z,41.26
2023-05-03T17:45:03.183Z,41.35
2023-05-03T17:47:29.789Z,41.32
2023-05-03T17:49:56.502Z,41.00
2023-05-03T17:52:23.552Z,41.39
2023-05-03T17:54:53.052Z,41.46
2023-05-03T17:57:22.493Z,42.08
2023-05-03T17:59:48.974Z,42.46
2023-05-03T18:02:15.408Z,42.63
2023-05-03T18:04:41.873Z,42.89
2023-05-03T18:07:08.505Z,42.81
2023-05-03T18:09:34.904Z,43.80
2023-05-03T18:12:03.476Z,43.73
2023-05-03T18:14:30.252Z,44.11
2023-05-03T18:16:57.155Z,44.47
2023-05-03T18:19:24.035Z,44.62
2023-05-03T18:21:50.519Z,44.81
2023-05-03T18:24:17.066Z,45.18
2023-05-03T18:26:43.622Z,45.62
2023-05-03T18:29:10.147Z,46.04
2023-05-03T18:31:36.746Z,46.99
2023-05-03T18:34:03.234Z,47.14
2023-05-03T18:36:29.761Z,48.03
2023-05-03T18:38:56.315Z,48.41
2023-05-03T18:41:23.051Z,47.54
2023-05-03T18:43:50.386Z,49.07
2023-05-03T18:46:18.634Z,49.68
2023-05-03T18:48:46.157Z,50.25
2023-05-03T18:51:12.610Z,50.36
2023-05-03T18:53:39.015Z,50.99
2023-05-03T18:56:05.760Z,51.35
2023-05-03T18:58:32.628Z,51.60
2023-05-03T19:01:00.187Z,51.88
2023-05-03T19:03:30.269Z,52.13
2023-05-03T19:06:09.850Z,52.47
2023-05-03T19:08:36.308Z,52.82
2023-05-03T19:11:14.117Z,53.19
2023-05-03T19:13:47.359Z,53.36
2023-05-03T19:16:15.497Z,53.74
2023-05-03T19:18:42.063Z,54.23
2023-05-03T19:21:08.841Z,54.07
2023-05-03T19:23:35.394Z,54.77
2023-05-03T19:26:01.843Z,54.36
2023-05-03T19:28:28.445Z,54.89
2023-05-03T19:30:55.070Z,55.08
2023-05-03T19:33:21.747Z,55.36
2023-05-03T19:35:48.123Z,55.53
2023-05-03T19:38:14.718Z,55.69
2023-05-03T19:40:41.333Z,56.00
2023-05-03T19:43:07.737Z,56.20
2023-05-03T19:45:34.339Z,56.14
2023-05-03T19:48:01.403Z,56.81
2023-05-03T19:50:27.840Z,56.91
2023-05-03T19:52:54.491Z,57.00
2023-05-03T19:55:21.069Z,57.02
2023-05-03T19:57:47.561Z,57.53
2023-05-03T20:00:15.681Z,57.65
2023-05-03T20:02:42.198Z,57.67
2023-05-03T20:05:08.793Z,57.89
2023-05-03T20:07:35.475Z,58.49
2023-05-03T20:10:02.262Z,58.58
2023-05-03T20:12:29.290Z,59.08
2023-05-03T20:14:55.734Z,59.16
2023-05-03T20:17:22.209Z,59.88
2023-05-03T20:19:52.019Z,59.58
2023-05-03T20:22:18.817Z,60.11
2023-05-03T20:24:45.185Z,60.63
2023-05-03T20:27:11.711Z,60.95
2023-05-03T20:29:38.135Z,61.17
2023-05-03T20:32:04.777Z,61.51
2023-05-03T20:34:31.199Z,61.69
2023-05-03T20:36:57.635Z,62.17
2023-05-03T20:39:24.095Z,62.13
2023-05-03T20:41:50.736Z,62.60
2023-05-03T20:44:17.159Z,62.78
2023-05-03T20:46:45.313Z,62.56
2023-05-03T20:49:11.982Z,62.63
2023-05-03T20:51:38.372Z,62.78
2023-05-03T20:54:04.833Z,63.50
2023-05-03T20:56:32.601Z,63.83
2023-05-03T20:58:59.020Z,63.91
2023-05-03T21:01:25.663Z,64.35
2023-05-03T21:03:52.135Z,64.87
2023-05-03T21:06:18.576Z,65.02
2023-05-03T21:08:44.979Z,65.36
2023-05-03T21:11:11.463Z,65.30
2023-05-03T21:13:38.466Z,65.84
2023-05-03T21:16:08.124Z,65.96
2023-05-03T21:18:34.727Z,65.66
2023-05-03T21:21:01.260Z,66.12
2023-05-03T21:23:27.730Z,65.79
2023-05-03T21:25:56.211Z,65.79
2023-05-03T21:28:23.080Z,66.31
2023-05-03T21:30:49.506Z,66.21
2023-05-03T21:33:16.302Z,66.53
2023-05-03T21:35:42.740Z,66.41
2023-05-03T21:38:09.596Z,67.20
2023-05-03T21:40:36.151Z,67.92
2023-05-03T21:43:04.268Z,67.60
2023-05-03T21:45:31.076Z,67.57
2023-05-03T21:47:57.550Z,68.01
2023-05-03T21:50:24.199Z,67.89
2023-05-03T21:52:50.615Z,67.97
2023-05-03T21:55:17.148Z,68.34
2023-05-03T21:57:43.522Z,68.40
2023-05-03T22:00:16.721Z,68.76
2023-05-03T22:02:43.312Z,69.13
2023-05-03T22:05:10.085Z,69.35
2023-05-03T22:07:36.523Z,69.76
2023-05-03T22:10:03.279Z,69.83
2023-05-03T22:12:29.916Z,70.22
2023-05-03T22:14:56.499Z,70.32
2023-05-03T22:17:22.988Z,70.79
2023-05-03T22:19:49.504Z,70.89
2023-05-03T22:22:16.076Z,70.50
2023-05-03T22:24:42.547Z,70.70
2023-05-03T22:27:08.976Z,70.78
2023-05-03T22:29:35.453Z,71.26
2023-05-03T22:32:02.841Z,71.28
2023-05-03T22:34:29.485Z,71.47
2023-05-03T22:36:56.038Z,71.91
2023-05-03T22:39:22.537Z,71.80
2023-05-03T22:41:48.992Z,72.01
2023-05-03T22:44:15.496Z,72.02
2023-05-03T22:46:41.888Z,72.29
2023-05-03T22:49:08.526Z,72.80
2023-05-03T22:51:34.923Z,72.49
2023-05-03T22:54:01.346Z,72.79
2023-05-03T22:56:27.765Z,73.15
2023-05-03T22:58:54.222Z,73.15
2023-05-03T23:01:20.711Z,73.41
2023-05-03T23:03:47.293Z,73.51
2023-05-03T23:06:14.533Z,73.79
2023-05-03T23:08:41.200Z,73.76
2023-05-03T23:11:08.141Z,73.84
2023-05-03T23:13:34.764Z,74.00
2023-05-03T23:16:01.755Z,74.37
2023-05-03T23:18:28.486Z,74.34
2023-05-03T23:20:55.313Z,74.36
2023-05-03T23:23:21.825Z,74.34
2023-05-03T23:25:48.210Z,74.34
2023-05-03T23:28:14.740Z,74.88
2023-05-03T23:30:43.689Z,74.97
2023-05-03T23:33:10.862Z,74.82
2023-05-03T23:35:38.315Z,75.09
2023-05-03T23:38:05.196Z,75.16
2023-05-03T23:40:31.791Z,75.29
2023-05-03T23:42:58.214Z,75.47
2023-05-03T23:45:24.726Z,75.82
2023-05-03T23:47:51.257Z,75.64
2023-05-03T23:50:17.788Z,75.63
2023-05-03T23:52:44.232Z,75.49
2023-05-03T23:55:11.113Z,75.81
2023-05-03T23:57:38.005Z,75.93
